Aviation Digital Data Service (ADDS)

Output produced by METARs form (1858 UTC 25 October 2014)
found at http://aviationweather.gov/adds/metars/
 
KVQQ 251720Z 2518/2618 34007KT P6SM SKC 
     FM252300 00000KT P6SM SKC 
     FM261500 32006KT P6SM SKC